sensor_id;sensor_type;location;lat;lon;timestamp;P1;durP1;ratioP1;P2;durP2;ratioP2
25155;SDS011;21913;52.456;13.634;2022-08-23T00:04:39;2.78;;;1.98;;
25155;SDS011;21913;52.456;13.634;2022-08-23T00:09:42;2.40;;;1.80;;
25155;SDS011;21913;52.456;13.634;2022-08-23T00:14:46;3.05;;;2.00;;
25155;SDS011;21913;52.456;13.634;2022-08-23T00:19:50;2.17;;;1.67;;
25155;SDS011;21913;52.456;13.634;2022-08-23T00:24:52;2.40;;;1.70;;
25155;SDS011;21913;52.456;13.634;2022-08-23T00:29:54;2.58;;;1.80;;
25155;SDS011;21913;52.456;13.634;2022-08-23T00:34:58;3.45;;;2.00;;
25155;SDS011;21913;52.456;13.634;2022-08-23T00:40:00;2.10;;;1.85;;
25155;SDS011;21913;52.456;13.634;2022-08-23T00:45:03;2.13;;;1.80;;
25155;SDS011;21913;52.456;13.634;2022-08-23T00:55:25;2.10;;;1.60;;
25155;SDS011;21913;52.456;13.634;2022-08-23T01:00:28;2.67;;;1.80;;
25155;SDS011;21913;52.456;13.634;2022-08-23T01:05:32;2.45;;;1.92;;
25155;SDS011;21913;52.456;13.634;2022-08-23T01:10:59;1.90;;;1.50;;
25155;SDS011;21913;52.456;13.634;2022-08-23T01:16:07;2.23;;;1.57;;
25155;SDS011;21913;52.456;13.634;2022-08-23T01:21:15;2.03;;;1.52;;
25155;SDS011;21913;52.456;13.634;2022-08-23T01:26:24;2.90;;;1.60;;
25155;SDS011;21913;52.456;13.634;2022-08-23T01:31:29;3.78;;;1.80;;
25155;SDS011;21913;52.456;13.634;2022-08-23T01:36:31;2.80;;;1.80;;
25155;SDS011;21913;52.456;13.634;2022-08-23T01:41:34;2.25;;;1.77;;
25155;SDS011;21913;52.456;13.634;2022-08-23T01:46:36;2.38;;;1.73;;
25155;SDS011;21913;52.456;13.634;2022-08-23T01:51:39;2.45;;;1.77;;
25155;SDS011;21913;52.456;13.634;2022-08-23T01:56:41;2.53;;;1.70;;
25155;SDS011;21913;52.456;13.634;2022-08-23T02:01:45;2.80;;;1.75;;
25155;SDS011;21913;52.456;13.634;2022-08-23T02:06:46;2.53;;;1.63;;
25155;SDS011;21913;52.456;13.634;2022-08-23T02:11:53;2.35;;;1.50;;
25155;SDS011;21913;52.456;13.634;2022-08-23T02:16:55;2.55;;;1.75;;
25155;SDS011;21913;52.456;13.634;2022-08-23T02:21:58;2.28;;;1.80;;
25155;SDS011;21913;52.456;13.634;2022-08-23T02:27:01;2.90;;;1.70;;
25155;SDS011;21913;52.456;13.634;2022-08-23T02:32:06;2.35;;;1.70;;
25155;SDS011;21913;52.456;13.634;2022-08-23T02:37:09;1.70;;;1.42;;
25155;SDS011;21913;52.456;13.634;2022-08-23T02:42:12;2.00;;;1.70;;
25155;SDS011;21913;52.456;13.634;2022-08-23T02:47:17;2.30;;;1.80;;
25155;SDS011;21913;52.456;13.634;2022-08-23T02:52:30;2.90;;;1.60;;
25155;SDS011;21913;52.456;13.634;2022-08-23T02:57:32;3.67;;;1.73;;
25155;SDS011;21913;52.456;13.634;2022-08-23T03:02:36;3.75;;;1.48;;
25155;SDS011;21913;52.456;13.634;2022-08-23T03:07:38;2.03;;;1.55;;
25155;SDS011;21913;52.456;13.634;2022-08-23T03:12:41;1.75;;;1.42;;
25155;SDS011;21913;52.456;13.634;2022-08-23T03:17:43;2.72;;;1.65;;
25155;SDS011;21913;52.456;13.634;2022-08-23T03:22:46;1.80;;;1.38;;
25155;SDS011;21913;52.456;13.634;2022-08-23T03:27:48;3.10;;;1.58;;
25155;SDS011;21913;52.456;13.634;2022-08-23T03:32:49;1.95;;;1.48;;
25155;SDS011;21913;52.456;13.634;2022-08-23T03:37:51;1.98;;;1.55;;
25155;SDS011;21913;52.456;13.634;2022-08-23T03:42:55;2.00;;;1.38;;
25155;SDS011;21913;52.456;13.634;2022-08-23T03:47:59;2.00;;;1.48;;
25155;SDS011;21913;52.456;13.634;2022-08-23T03:53:01;1.75;;;1.30;;
25155;SDS011;21913;52.456;13.634;2022-08-23T03:58:03;2.47;;;1.52;;
25155;SDS011;21913;52.456;13.634;2022-08-23T04:03:05;1.90;;;1.40;;
25155;SDS011;21913;52.456;13.634;2022-08-23T04:08:19;2.22;;;1.48;;
25155;SDS011;21913;52.456;13.634;2022-08-23T04:13:21;2.45;;;1.60;;
25155;SDS011;21913;52.456;13.634;2022-08-23T04:18:23;2.45;;;1.80;;
25155;SDS011;21913;52.456;13.634;2022-08-23T04:23:25;1.70;;;1.33;;
25155;SDS011;21913;52.456;13.634;2022-08-23T04:28:29;1.65;;;1.38;;
25155;SDS011;21913;52.456;13.634;2022-08-23T04:33:31;2.28;;;1.50;;
25155;SDS011;21913;52.456;13.634;2022-08-23T04:38:34;1.92;;;1.40;;
25155;SDS011;21913;52.456;13.634;2022-08-23T04:43:40;2.03;;;1.33;;
25155;SDS011;21913;52.456;13.634;2022-08-23T04:48:44;1.95;;;1.40;;
25155;SDS011;21913;52.456;13.634;2022-08-23T04:53:47;2.33;;;1.48;;
25155;SDS011;21913;52.456;13.634;2022-08-23T04:59:07;2.17;;;1.40;;
25155;SDS011;21913;52.456;13.634;2022-08-23T05:04:10;1.50;;;1.30;;
25155;SDS011;21913;52.456;13.634;2022-08-23T05:09:13;2.85;;;1.40;;
25155;SDS011;21913;52.456;13.634;2022-08-23T05:14:17;2.20;;;1.48;;
25155;SDS011;21913;52.456;13.634;2022-08-23T05:19:20;1.70;;;1.40;;
25155;SDS011;21913;52.456;13.634;2022-08-23T05:24:21;2.13;;;1.40;;
25155;SDS011;21913;52.456;13.634;2022-08-23T05:29:24;1.90;;;1.33;;
25155;SDS011;21913;52.456;13.634;2022-08-23T05:34:26;2.15;;;1.38;;
25155;SDS011;21913;52.456;13.634;2022-08-23T05:39:30;1.70;;;1.30;;
25155;SDS011;21913;52.456;13.634;2022-08-23T05:44:31;2.35;;;1.60;;
25155;SDS011;21913;52.456;13.634;2022-08-23T05:49:33;1.52;;;1.13;;
25155;SDS011;21913;52.456;13.634;2022-08-23T05:54:36;1.95;;;1.30;;
25155;SDS011;21913;52.456;13.634;2022-08-23T05:59:59;1.38;;;1.20;;
25155;SDS011;21913;52.456;13.634;2022-08-23T06:05:01;2.50;;;1.30;;
25155;SDS011;21913;52.456;13.634;2022-08-23T06:10:03;1.67;;;1.30;;
25155;SDS011;21913;52.456;13.634;2022-08-23T06:15:06;1.65;;;1.40;;
25155;SDS011;21913;52.456;13.634;2022-08-23T06:20:08;1.52;;;1.20;;
25155;SDS011;21913;52.456;13.634;2022-08-23T06:25:27;2.03;;;1.20;;
25155;SDS011;21913;52.456;13.634;2022-08-23T06:30:38;1.85;;;1.30;;
25155;SDS011;21913;52.456;13.634;2022-08-23T06:35:46;1.98;;;1.33;;
25155;SDS011;21913;52.456;13.634;2022-08-23T06:41:10;1.90;;;1.20;;
25155;SDS011;21913;52.456;13.634;2022-08-23T06:46:24;1.85;;;1.40;;
25155;SDS011;21913;52.456;13.634;2022-08-23T06:51:30;1.85;;;1.20;;
25155;SDS011;21913;52.456;13.634;2022-08-23T06:56:50;1.77;;;1.25;;
25155;SDS011;21913;52.456;13.634;2022-08-23T07:02:00;2.42;;;1.10;;
25155;SDS011;21913;52.456;13.634;2022-08-23T07:07:23;1.50;;;1.30;;
25155;SDS011;21913;52.456;13.634;2022-08-23T07:12:25;1.45;;;1.10;;
25155;SDS011;21913;52.456;13.634;2022-08-23T07:17:26;2.05;;;1.30;;
25155;SDS011;21913;52.456;13.634;2022-08-23T07:22:28;1.83;;;1.30;;
25155;SDS011;21913;52.456;13.634;2022-08-23T07:27:30;1.63;;;1.33;;
25155;SDS011;21913;52.456;13.634;2022-08-23T07:32:35;1.77;;;1.10;;
25155;SDS011;21913;52.456;13.634;2022-08-23T07:37:57;2.67;;;1.35;;
25155;SDS011;21913;52.456;13.634;2022-08-23T07:43:07;2.05;;;1.40;;
25155;SDS011;21913;52.456;13.634;2022-08-23T07:48:10;1.45;;;1.20;;
25155;SDS011;21913;52.456;13.634;2022-08-23T07:53:25;2.70;;;1.20;;
25155;SDS011;21913;52.456;13.634;2022-08-23T07:58:28;3.40;;;1.30;;
25155;SDS011;21913;52.456;13.634;2022-08-23T08:03:48;2.30;;;1.20;;
25155;SDS011;21913;52.456;13.634;2022-08-23T08:08:58;1.63;;;1.30;;
25155;SDS011;21913;52.456;13.634;2022-08-23T08:14:04;1.45;;;1.23;;
25155;SDS011;21913;52.456;13.634;2022-08-23T08:24:14;2.08;;;1.30;;
25155;SDS011;21913;52.456;13.634;2022-08-23T08:29:20;1.83;;;1.30;;
25155;SDS011;21913;52.456;13.634;2022-08-23T08:34:24;1.38;;;1.10;;
25155;SDS011;21913;52.456;13.634;2022-08-23T08:39:27;3.03;;;1.30;;
25155;SDS011;21913;52.456;13.634;2022-08-23T08:44:46;1.98;;;1.40;;
25155;SDS011;21913;52.456;13.634;2022-08-23T08:55:11;2.25;;;1.30;;
25155;SDS011;21913;52.456;13.634;2022-08-23T09:00:21;1.70;;;1.30;;
25155;SDS011;21913;52.456;13.634;2022-08-23T09:05:32;1.67;;;1.20;;
25155;SDS011;21913;52.456;13.634;2022-08-23T09:21:11;1.38;;;1.10;;
25155;SDS011;21913;52.456;13.634;2022-08-23T09:26:23;1.98;;;1.40;;
25155;SDS011;21913;52.456;13.634;2022-08-23T09:31:37;2.20;;;1.52;;
25155;SDS011;21913;52.456;13.634;2022-08-23T09:36:42;1.65;;;1.20;;
25155;SDS011;21913;52.456;13.634;2022-08-23T09:41:43;2.25;;;1.30;;
25155;SDS011;21913;52.456;13.634;2022-08-23T09:46:45;2.83;;;1.17;;
25155;SDS011;21913;52.456;13.634;2022-08-23T09:51:52;1.92;;;1.33;;
25155;SDS011;21913;52.456;13.634;2022-08-23T09:56:59;1.73;;;1.20;;
25155;SDS011;21913;52.456;13.634;2022-08-23T10:02:03;1.45;;;1.30;;
25155;SDS011;21913;52.456;13.634;2022-08-23T10:12:39;2.22;;;1.23;;
25155;SDS011;21913;52.456;13.634;2022-08-23T10:17:56;1.63;;;1.30;;
25155;SDS011;21913;52.456;13.634;2022-08-23T10:39:28;2.05;;;1.50;;
25155;SDS011;21913;52.456;13.634;2022-08-23T10:49:49;2.75;;;1.45;;
25155;SDS011;21913;52.456;13.634;2022-08-23T10:54:55;1.70;;;1.40;;
25155;SDS011;21913;52.456;13.634;2022-08-23T11:00:24;1.77;;;1.35;;
25155;SDS011;21913;52.456;13.634;2022-08-23T11:05:30;1.85;;;1.40;;
25155;SDS011;21913;52.456;13.634;2022-08-23T11:10:42;1.85;;;1.30;;
25155;SDS011;21913;52.456;13.634;2022-08-23T11:31:39;1.80;;;1.48;;
25155;SDS011;21913;52.456;13.634;2022-08-23T11:47:45;1.40;;;1.30;;
25155;SDS011;21913;52.456;13.634;2022-08-23T11:52:55;1.95;;;1.40;;
25155;SDS011;21913;52.456;13.634;2022-08-23T12:03:31;1.92;;;1.40;;
25155;SDS011;21913;52.456;13.634;2022-08-23T12:19:37;1.30;;;1.20;;
25155;SDS011;21913;52.456;13.634;2022-08-23T12:24:58;2.03;;;1.40;;
25155;SDS011;21913;52.456;13.634;2022-08-23T12:40:49;1.30;;;1.20;;
25155;SDS011;21913;52.456;13.634;2022-08-23T12:51:01;2.00;;;1.50;;
25155;SDS011;21913;52.456;13.634;2022-08-23T12:56:10;1.70;;;1.40;;
25155;SDS011;21913;52.456;13.634;2022-08-23T13:01:19;2.50;;;1.55;;
25155;SDS011;21913;52.456;13.634;2022-08-23T13:06:25;1.40;;;1.30;;
25155;SDS011;21913;52.456;13.634;2022-08-23T13:11:31;2.05;;;1.40;;
25155;SDS011;21913;52.456;13.634;2022-08-23T13:21:36;5.40;;;2.30;;
25155;SDS011;21913;52.456;13.634;2022-08-23T13:26:39;3.85;;;2.25;;
25155;SDS011;21913;52.456;13.634;2022-08-23T13:32:02;3.40;;;2.20;;
25155;SDS011;21913;52.456;13.634;2022-08-23T13:37:09;3.22;;;2.00;;
25155;SDS011;21913;52.456;13.634;2022-08-23T13:42:37;3.67;;;2.15;;
25155;SDS011;21913;52.456;13.634;2022-08-23T13:47:46;4.28;;;2.17;;
25155;SDS011;21913;52.456;13.634;2022-08-23T13:52:50;2.55;;;1.90;;
25155;SDS011;21913;52.456;13.634;2022-08-23T13:58:17;4.13;;;2.10;;
25155;SDS011;21913;52.456;13.634;2022-08-23T14:03:27;2.60;;;2.00;;
25155;SDS011;21913;52.456;13.634;2022-08-23T14:08:29;2.97;;;1.92;;
25155;SDS011;21913;52.456;13.634;2022-08-23T14:13:31;2.72;;;1.85;;
25155;SDS011;21913;52.456;13.634;2022-08-23T14:18:33;3.10;;;2.10;;
25155;SDS011;21913;52.456;13.634;2022-08-23T14:23:35;3.35;;;2.15;;
25155;SDS011;21913;52.456;13.634;2022-08-23T14:28:36;2.50;;;1.80;;
25155;SDS011;21913;52.456;13.634;2022-08-23T14:33:40;2.70;;;1.92;;
25155;SDS011;21913;52.456;13.634;2022-08-23T14:38:42;2.63;;;2.00;;
25155;SDS011;21913;52.456;13.634;2022-08-23T14:43:43;3.17;;;1.98;;
25155;SDS011;21913;52.456;13.634;2022-08-23T14:48:45;2.25;;;1.95;;
25155;SDS011;21913;52.456;13.634;2022-08-23T14:53:47;3.65;;;1.88;;
25155;SDS011;21913;52.456;13.634;2022-08-23T14:58:49;5.57;;;1.95;;
25155;SDS011;21913;52.456;13.634;2022-08-23T15:03:51;2.97;;;1.90;;
25155;SDS011;21913;52.456;13.634;2022-08-23T15:08:55;2.80;;;2.10;;
25155;SDS011;21913;52.456;13.634;2022-08-23T15:13:56;3.25;;;2.20;;
25155;SDS011;21913;52.456;13.634;2022-08-23T15:19:00;2.50;;;1.92;;
25155;SDS011;21913;52.456;13.634;2022-08-23T15:24:01;2.60;;;1.95;;
25155;SDS011;21913;52.456;13.634;2022-08-23T15:29:03;3.15;;;2.00;;
25155;SDS011;21913;52.456;13.634;2022-08-23T15:34:05;3.25;;;2.20;;
25155;SDS011;21913;52.456;13.634;2022-08-23T15:39:07;3.22;;;2.35;;
25155;SDS011;21913;52.456;13.634;2022-08-23T15:44:10;2.80;;;1.90;;
25155;SDS011;21913;52.456;13.634;2022-08-23T15:49:13;2.65;;;2.00;;
25155;SDS011;21913;52.456;13.634;2022-08-23T15:54:16;3.22;;;1.98;;
25155;SDS011;21913;52.456;13.634;2022-08-23T15:59:18;3.30;;;2.15;;
25155;SDS011;21913;52.456;13.634;2022-08-23T16:04:19;3.25;;;2.20;;
25155;SDS011;21913;52.456;13.634;2022-08-23T16:09:21;3.75;;;2.10;;
25155;SDS011;21913;52.456;13.634;2022-08-23T16:14:24;3.05;;;2.10;;
25155;SDS011;21913;52.456;13.634;2022-08-23T16:19:26;9.70;;;2.90;;
25155;SDS011;21913;52.456;13.634;2022-08-23T16:24:28;5.50;;;2.70;;
25155;SDS011;21913;52.456;13.634;2022-08-23T16:29:31;6.18;;;2.70;;
25155;SDS011;21913;52.456;13.634;2022-08-23T16:34:33;5.38;;;2.90;;
25155;SDS011;21913;52.456;13.634;2022-08-23T16:39:35;5.95;;;2.65;;
25155;SDS011;21913;52.456;13.634;2022-08-23T16:44:37;4.97;;;2.78;;
25155;SDS011;21913;52.456;13.634;2022-08-23T16:49:38;6.65;;;2.95;;
25155;SDS011;21913;52.456;13.634;2022-08-23T16:54:40;3.88;;;2.78;;
25155;SDS011;21913;52.456;13.634;2022-08-23T16:59:42;4.47;;;2.88;;
25155;SDS011;21913;52.456;13.634;2022-08-23T17:04:44;5.93;;;2.80;;
25155;SDS011;21913;52.456;13.634;2022-08-23T17:09:47;5.28;;;2.70;;
25155;SDS011;21913;52.456;13.634;2022-08-23T17:14:48;3.80;;;2.72;;
25155;SDS011;21913;52.456;13.634;2022-08-23T17:19:50;4.85;;;2.47;;
25155;SDS011;21913;52.456;13.634;2022-08-23T17:24:52;4.65;;;2.85;;
25155;SDS011;21913;52.456;13.634;2022-08-23T17:29:54;3.35;;;2.40;;
25155;SDS011;21913;52.456;13.634;2022-08-23T17:34:55;3.75;;;2.60;;
25155;SDS011;21913;52.456;13.634;2022-08-23T17:39:56;7.57;;;2.90;;
25155;SDS011;21913;52.456;13.634;2022-08-23T17:44:58;3.17;;;2.47;;
25155;SDS011;21913;52.456;13.634;2022-08-23T17:50:00;4.38;;;2.92;;
25155;SDS011;21913;52.456;13.634;2022-08-23T17:55:01;4.03;;;2.78;;
25155;SDS011;21913;52.456;13.634;2022-08-23T18:00:05;4.75;;;2.72;;
25155;SDS011;21913;52.456;13.634;2022-08-23T18:05:09;4.30;;;2.60;;
25155;SDS011;21913;52.456;13.634;2022-08-23T18:10:11;3.83;;;2.70;;
25155;SDS011;21913;52.456;13.634;2022-08-23T18:15:13;3.42;;;2.30;;
25155;SDS011;21913;52.456;13.634;2022-08-23T18:20:15;3.40;;;2.50;;
25155;SDS011;21913;52.456;13.634;2022-08-23T18:25:16;4.22;;;2.55;;
25155;SDS011;21913;52.456;13.634;2022-08-23T18:30:18;3.40;;;2.72;;
25155;SDS011;21913;52.456;13.634;2022-08-23T18:35:20;3.72;;;2.63;;
25155;SDS011;21913;52.456;13.634;2022-08-23T18:40:22;3.90;;;2.58;;
25155;SDS011;21913;52.456;13.634;2022-08-23T18:45:25;3.85;;;2.38;;
25155;SDS011;21913;52.456;13.634;2022-08-23T18:50:27;3.08;;;2.30;;
25155;SDS011;21913;52.456;13.634;2022-08-23T18:55:28;4.30;;;2.83;;
25155;SDS011;21913;52.456;13.634;2022-08-23T19:00:30;4.07;;;2.60;;
25155;SDS011;21913;52.456;13.634;2022-08-23T19:05:35;3.38;;;2.40;;
25155;SDS011;21913;52.456;13.634;2022-08-23T19:10:37;3.42;;;2.40;;
25155;SDS011;21913;52.456;13.634;2022-08-23T19:15:39;3.15;;;2.50;;
25155;SDS011;21913;52.456;13.634;2022-08-23T19:20:41;3.75;;;2.40;;
25155;SDS011;21913;52.456;13.634;2022-08-23T19:25:45;4.20;;;2.47;;
25155;SDS011;21913;52.456;13.634;2022-08-23T19:30:47;3.67;;;2.45;;
25155;SDS011;21913;52.456;13.634;2022-08-23T19:35:49;3.58;;;2.50;;
25155;SDS011;21913;52.456;13.634;2022-08-23T19:40:50;3.13;;;2.30;;
25155;SDS011;21913;52.456;13.634;2022-08-23T19:45:55;6.80;;;3.42;;
25155;SDS011;21913;52.456;13.634;2022-08-23T19:50:56;6.97;;;3.25;;
25155;SDS011;21913;52.456;13.634;2022-08-23T19:56:00;6.18;;;3.25;;
25155;SDS011;21913;52.456;13.634;2022-08-23T20:01:01;5.80;;;2.97;;
25155;SDS011;21913;52.456;13.634;2022-08-23T20:06:03;5.38;;;3.00;;
25155;SDS011;21913;52.456;13.634;2022-08-23T20:11:05;4.97;;;2.95;;
25155;SDS011;21913;52.456;13.634;2022-08-23T20:16:09;5.63;;;3.20;;
25155;SDS011;21913;52.456;13.634;2022-08-23T20:21:10;5.70;;;3.08;;
25155;SDS011;21913;52.456;13.634;2022-08-23T20:26:12;5.13;;;3.05;;
25155;SDS011;21913;52.456;13.634;2022-08-23T20:31:15;4.63;;;2.83;;
25155;SDS011;21913;52.456;13.634;2022-08-23T20:36:18;4.88;;;3.28;;
25155;SDS011;21913;52.456;13.634;2022-08-23T20:41:20;6.38;;;3.10;;
25155;SDS011;21913;52.456;13.634;2022-08-23T20:46:23;5.57;;;3.35;;
25155;SDS011;21913;52.456;13.634;2022-08-23T20:51:26;5.43;;;2.63;;
25155;SDS011;21913;52.456;13.634;2022-08-23T20:56:32;6.28;;;3.45;;
25155;SDS011;21913;52.456;13.634;2022-08-23T21:01:34;7.97;;;2.97;;
25155;SDS011;21913;52.456;13.634;2022-08-23T21:06:37;6.05;;;3.13;;
25155;SDS011;21913;52.456;13.634;2022-08-23T21:11:42;5.22;;;3.03;;
25155;SDS011;21913;52.456;13.634;2022-08-23T21:16:45;4.55;;;2.65;;
25155;SDS011;21913;52.456;13.634;2022-08-23T21:21:47;4.95;;;2.90;;
25155;SDS011;21913;52.456;13.634;2022-08-23T21:26:49;3.75;;;2.50;;
25155;SDS011;21913;52.456;13.634;2022-08-23T21:31:51;5.13;;;3.00;;
25155;SDS011;21913;52.456;13.634;2022-08-23T21:36:52;4.00;;;2.70;;
25155;SDS011;21913;52.456;13.634;2022-08-23T21:41:54;6.90;;;3.05;;
25155;SDS011;21913;52.456;13.634;2022-08-23T21:46:56;4.65;;;3.13;;
25155;SDS011;21913;52.456;13.634;2022-08-23T21:51:58;3.47;;;2.67;;
25155;SDS011;21913;52.456;13.634;2022-08-23T21:56:59;4.70;;;2.65;;
25155;SDS011;21913;52.456;13.634;2022-08-23T22:02:01;3.70;;;2.63;;
25155;SDS011;21913;52.456;13.634;2022-08-23T22:07:03;3.72;;;2.63;;
25155;SDS011;21913;52.456;13.634;2022-08-23T22:12:04;5.50;;;3.13;;
25155;SDS011;21913;52.456;13.634;2022-08-23T22:17:06;4.97;;;2.83;;
25155;SDS011;21913;52.456;13.634;2022-08-23T22:22:07;3.13;;;2.47;;
25155;SDS011;21913;52.456;13.634;2022-08-23T22:27:09;4.13;;;2.58;;
25155;SDS011;21913;52.456;13.634;2022-08-23T22:32:11;4.75;;;2.83;;
25155;SDS011;21913;52.456;13.634;2022-08-23T22:37:13;3.53;;;2.40;;
25155;SDS011;21913;52.456;13.634;2022-08-23T22:42:14;3.45;;;2.60;;
25155;SDS011;21913;52.456;13.634;2022-08-23T22:47:16;4.68;;;2.72;;
25155;SDS011;21913;52.456;13.634;2022-08-23T22:52:18;3.83;;;2.60;;
25155;SDS011;21913;52.456;13.634;2022-08-23T22:57:20;3.40;;;2.50;;
25155;SDS011;21913;52.456;13.634;2022-08-23T23:02:21;5.88;;;2.50;;
25155;SDS011;21913;52.456;13.634;2022-08-23T23:07:23;3.20;;;2.55;;
25155;SDS011;21913;52.456;13.634;2022-08-23T23:12:24;3.65;;;2.60;;
25155;SDS011;21913;52.456;13.634;2022-08-23T23:17:26;3.25;;;2.40;;
25155;SDS011;21913;52.456;13.634;2022-08-23T23:22:27;3.50;;;2.42;;
25155;SDS011;21913;52.456;13.634;2022-08-23T23:27:29;4.07;;;2.60;;
25155;SDS011;21913;52.456;13.634;2022-08-23T23:32:30;3.70;;;2.50;;
25155;SDS011;21913;52.456;13.634;2022-08-23T23:37:32;3.58;;;2.50;;
25155;SDS011;21913;52.456;13.634;2022-08-23T23:42:33;2.72;;;2.22;;
25155;SDS011;21913;52.456;13.634;2022-08-23T23:47:36;2.50;;;2.10;;
25155;SDS011;21913;52.456;13.634;2022-08-23T23:52:38;3.80;;;2.38;;
25155;SDS011;21913;52.456;13.634;2022-08-23T23:57:39;3.20;;;2.40;;
